createdAt,value
2018-08-10T00:00:01.012Z,833.00
2018-08-10T00:01:01.782Z,832.00
2018-08-10T00:02:02.556Z,833.00
2018-08-10T00:03:03.327Z,832.00
2018-08-10T00:04:04.128Z,831.00
2018-08-10T00:05:04.943Z,833.00
2018-08-10T00:06:04.681Z,833.00
2018-08-10T00:07:06.453Z,833.00
2018-08-10T00:08:07.225Z,833.00
2018-08-10T00:09:08.022Z,835.00
2018-08-10T00:10:08.796Z,830.00
2018-08-10T00:11:09.573Z,835.00
2018-08-10T00:12:10.346Z,835.00
2018-08-10T00:13:11.122Z,837.00
2018-08-10T00:14:11.925Z,836.00
2018-08-10T00:15:12.695Z,836.00
2018-08-10T00:16:13.470Z,840.00
2018-08-10T00:17:14.241Z,835.00
2018-08-10T00:18:15.015Z,835.00
2018-08-10T00:19:15.812Z,838.00
2018-08-10T00:20:16.588Z,837.00
2018-08-10T00:21:17.357Z,840.00
2018-08-10T00:22:18.130Z,840.00
2018-08-10T00:23:18.909Z,836.00
2018-08-10T00:24:19.699Z,835.00
2018-08-10T00:25:20.472Z,836.00
2018-08-10T00:26:21.244Z,838.00
2018-08-10T00:27:22.024Z,835.00
2018-08-10T00:28:22.791Z,836.00
2018-08-10T00:29:23.596Z,835.00
2018-08-10T00:30:24.368Z,831.00
2018-08-10T00:31:27.448Z,835.00
2018-08-10T00:32:25.631Z,836.00
2018-08-10T00:33:24.820Z,834.00
2018-08-10T00:34:40.043Z,844.00
2018-08-10T00:35:40.845Z,842.00
2018-08-10T00:36:40.591Z,843.00
2018-08-10T00:37:42.351Z,841.00
2018-08-10T00:38:43.121Z,837.00
2018-08-10T00:39:43.925Z,838.00
2018-08-10T00:40:44.689Z,841.00
2018-08-10T00:41:45.466Z,841.00
2018-08-10T00:42:46.240Z,841.00
2018-08-10T00:43:47.022Z,842.00
2018-08-10T00:44:47.812Z,840.00
2018-08-10T00:45:48.584Z,837.00
2018-08-10T00:46:49.356Z,835.00
2018-08-10T00:47:50.127Z,836.00
2018-08-10T00:48:50.899Z,835.00
2018-08-10T00:49:51.713Z,834.00
2018-08-10T00:50:52.465Z,836.00
2018-08-10T00:51:53.235Z,834.00
2018-08-10T00:52:54.010Z,835.00
2018-08-10T00:53:54.789Z,841.00
2018-08-10T00:54:55.594Z,836.00
2018-08-10T00:55:56.366Z,841.00
2018-08-10T00:56:57.227Z,844.00
2018-08-10T00:57:56.921Z,843.00
2018-08-10T00:58:58.694Z,843.00
2018-08-10T00:59:59.488Z,841.00
2018-08-10T01:01:00.267Z,841.00
2018-08-10T01:02:01.041Z,842.00
2018-08-10T01:03:01.813Z,840.00
2018-08-10T01:04:02.585Z,840.00
2018-08-10T01:05:03.382Z,838.00
2018-08-10T01:06:05.152Z,840.00
2018-08-10T01:07:05.012Z,840.00
2018-08-10T01:08:04.712Z,836.00
2018-08-10T01:09:06.482Z,838.00
2018-08-10T01:10:07.274Z,836.00
2018-08-10T01:11:08.055Z,841.00
2018-08-10T01:12:08.827Z,841.00
2018-08-10T01:13:09.640Z,838.00
2018-08-10T01:14:09.383Z,842.00
2018-08-10T01:15:11.167Z,836.00
2018-08-10T01:16:11.942Z,842.00
2018-08-10T01:17:12.715Z,845.00
2018-08-10T01:18:13.489Z,842.00
2018-08-10T01:19:14.335Z,843.00
2018-08-10T01:20:15.062Z,844.00
2018-08-10T01:21:15.830Z,845.00
2018-08-10T01:22:16.687Z,845.00
2018-08-10T01:23:16.381Z,842.00
2018-08-10T01:24:18.158Z,846.00
2018-08-10T01:25:18.963Z,841.00
2018-08-10T01:26:19.740Z,842.00
2018-08-10T01:27:20.512Z,843.00
2018-08-10T01:28:21.309Z,842.00
2018-08-10T01:29:21.062Z,841.00
2018-08-10T01:30:22.870Z,841.00
2018-08-10T01:31:23.644Z,838.00
2018-08-10T01:32:24.414Z,835.00
2018-08-10T01:33:25.187Z,837.00
2018-08-10T01:34:25.965Z,840.00
2018-08-10T01:35:26.762Z,837.00
2018-08-10T01:36:27.542Z,840.00
2018-08-10T01:37:28.397Z,837.00
2018-08-10T01:38:28.096Z,841.00
2018-08-10T01:39:29.863Z,841.00
2018-08-10T01:40:30.666Z,841.00
2018-08-10T01:41:31.442Z,842.00
2018-08-10T01:42:32.214Z,841.00
2018-08-10T01:43:32.991Z,841.00
2018-08-10T01:44:33.767Z,840.00
2018-08-10T01:45:35.288Z,841.00
2018-08-10T01:46:35.063Z,845.00
2018-08-10T01:47:35.836Z,842.00
2018-08-10T01:48:36.607Z,842.00
2018-08-10T01:49:37.380Z,842.00
2018-08-10T01:50:38.772Z,843.00
2018-08-10T01:51:38.549Z,843.00
2018-08-10T01:52:39.318Z,841.00
2018-08-10T01:53:40.094Z,841.00
2018-08-10T01:54:40.867Z,838.00
2018-08-10T01:55:41.666Z,842.00
2018-08-10T01:56:42.442Z,847.00
2018-08-10T01:57:43.217Z,842.00
2018-08-10T01:58:42.981Z,842.00
2018-08-10T01:59:44.754Z,843.00
2018-08-10T02:00:45.553Z,841.00
2018-08-10T02:01:46.327Z,845.00
2018-08-10T02:02:47.102Z,846.00
2018-08-10T02:03:47.874Z,846.00
2018-08-10T02:04:48.649Z,846.00
2018-08-10T02:05:49.447Z,846.00
2018-08-10T02:06:50.223Z,846.00
2018-08-10T02:07:50.997Z,845.00
2018-08-10T02:08:51.767Z,842.00
2018-08-10T02:09:52.555Z,842.00
2018-08-10T02:10:53.350Z,843.00
2018-08-10T02:11:54.125Z,844.00
2018-08-10T02:12:54.901Z,846.00
2018-08-10T02:13:55.670Z,844.00
2018-08-10T02:14:56.439Z,840.00
2018-08-10T02:15:57.251Z,845.00
2018-08-10T02:16:58.048Z,845.00
2018-08-10T02:17:58.807Z,843.00
2018-08-10T02:18:59.573Z,842.00
2018-08-10T02:20:00.352Z,841.00
2018-08-10T02:21:01.142Z,841.00
2018-08-10T02:22:01.914Z,843.00
2018-08-10T02:23:02.692Z,845.00
2018-08-10T02:24:03.458Z,842.00
2018-08-10T02:25:04.321Z,841.00
2018-08-10T02:26:04.051Z,842.00
2018-08-10T02:27:05.819Z,845.00
2018-08-10T02:28:06.589Z,843.00
2018-08-10T02:29:07.363Z,844.00
2018-08-10T02:30:08.504Z,845.00
2018-08-10T02:31:08.714Z,846.00
2018-08-10T02:32:07.901Z,846.00
2018-08-10T02:35:04.848Z,847.00
2018-08-10T02:36:05.659Z,843.00
2018-08-10T02:37:06.423Z,845.00
2018-08-10T02:38:07.200Z,842.00
2018-08-10T02:39:07.963Z,844.00
2018-08-10T02:40:08.736Z,846.00
2018-08-10T02:41:09.534Z,845.00
2018-08-10T02:42:10.306Z,846.00
2018-08-10T02:43:11.079Z,846.00
2018-08-10T02:44:11.850Z,846.00
2018-08-10T02:45:13.619Z,843.00
2018-08-10T02:46:13.416Z,842.00
2018-08-10T02:47:14.188Z,846.00
2018-08-10T02:48:14.959Z,847.00
2018-08-10T02:49:15.728Z,845.00
2018-08-10T02:50:16.500Z,844.00
2018-08-10T02:51:17.308Z,843.00
2018-08-10T02:52:18.077Z,842.00
2018-08-10T02:53:18.849Z,841.00
2018-08-10T02:54:19.619Z,844.00
2018-08-10T02:55:20.392Z,840.00
2018-08-10T02:56:21.192Z,842.00
2018-08-10T02:57:21.957Z,845.00
2018-08-10T02:58:22.727Z,840.00
2018-08-10T02:59:23.501Z,841.00
2018-08-10T03:00:24.279Z,840.00
2018-08-10T03:01:25.075Z,841.00
2018-08-10T03:02:25.858Z,842.00
2018-08-10T03:03:26.625Z,842.00
2018-08-10T03:04:27.411Z,841.00
2018-08-10T03:05:28.176Z,842.00
2018-08-10T03:06:28.986Z,844.00
2018-08-10T03:07:29.752Z,842.00
2018-08-10T03:08:30.535Z,841.00
2018-08-10T03:09:31.300Z,837.00
2018-08-10T03:10:32.073Z,836.00
2018-08-10T03:11:32.880Z,835.00
2018-08-10T03:12:33.651Z,838.00
2018-08-10T03:13:34.432Z,837.00
2018-08-10T03:14:35.206Z,838.00
2018-08-10T03:15:36.973Z,835.00
2018-08-10T03:16:36.771Z,836.00
2018-08-10T03:17:37.541Z,835.00
2018-08-10T03:18:38.320Z,837.00
2018-08-10T03:19:39.088Z,837.00
2018-08-10T03:20:39.863Z,835.00
2018-08-10T03:21:40.657Z,833.00
2018-08-10T03:22:41.438Z,834.00
2018-08-10T03:23:42.203Z,834.00
2018-08-10T03:24:42.978Z,838.00
2018-08-10T03:25:43.761Z,836.00
2018-08-10T03:26:44.558Z,837.00
2018-08-10T03:27:45.328Z,840.00
2018-08-10T03:28:46.104Z,840.00
2018-08-10T03:29:46.879Z,838.00
2018-08-10T03:30:47.654Z,840.00
2018-08-10T03:31:48.456Z,838.00
2018-08-10T03:32:49.224Z,836.00
2018-08-10T03:33:49.999Z,835.00
2018-08-10T03:34:50.770Z,835.00
2018-08-10T03:35:51.542Z,835.00
2018-08-10T03:36:52.346Z,840.00
2018-08-10T03:37:53.113Z,837.00
2018-08-10T03:38:53.985Z,836.00
2018-08-10T03:39:53.672Z,837.00
2018-08-10T03:40:55.446Z,834.00
2018-08-10T03:41:56.251Z,834.00
2018-08-10T03:42:57.030Z,835.00
2018-08-10T03:43:57.806Z,837.00
2018-08-10T03:44:58.586Z,838.00
2018-08-10T03:45:59.357Z,840.00
2018-08-10T03:47:00.163Z,835.00
2018-08-10T03:48:00.927Z,836.00
2018-08-10T03:49:01.706Z,834.00
2018-08-10T03:50:02.480Z,835.00
2018-08-10T03:51:03.255Z,835.00
2018-08-10T03:52:03.056Z,838.00
2018-08-10T03:53:04.836Z,836.00
2018-08-10T03:54:05.598Z,837.00
2018-08-10T03:55:06.378Z,833.00
2018-08-10T03:56:07.158Z,840.00
2018-08-10T03:57:07.951Z,838.00
2018-08-10T03:58:09.718Z,838.00
2018-08-10T03:59:09.497Z,838.00
2018-08-10T04:00:10.271Z,841.00
2018-08-10T04:01:11.047Z,840.00
2018-08-10T04:02:11.838Z,837.00
2018-08-10T04:03:12.624Z,840.00
2018-08-10T04:04:13.384Z,838.00
2018-08-10T04:05:14.155Z,841.00
2018-08-10T04:06:14.929Z,838.00
2018-08-10T04:07:15.724Z,840.00
2018-08-10T04:08:16.507Z,838.00
2018-08-10T04:09:17.282Z,840.00
2018-08-10T04:10:18.054Z,841.00
2018-08-10T04:11:18.829Z,841.00
2018-08-10T04:12:19.641Z,840.00
2018-08-10T04:13:20.407Z,841.00
2018-08-10T04:14:21.178Z,842.00
2018-08-10T04:15:21.955Z,837.00
2018-08-10T04:16:22.732Z,841.00
2018-08-10T04:17:23.529Z,841.00
2018-08-10T04:18:24.301Z,841.00
2018-08-10T04:19:25.079Z,836.00
2018-08-10T04:20:25.851Z,835.00
2018-08-10T04:21:26.628Z,835.00
2018-08-10T04:22:27.429Z,835.00
2018-08-10T04:23:28.580Z,837.00
2018-08-10T04:24:28.959Z,835.00
2018-08-10T04:25:28.155Z,834.00
2018-08-10T04:25:35.626Z,840.00
2018-08-10T04:26:36.402Z,838.00
2018-08-10T04:27:38.192Z,835.00
2018-08-10T04:28:37.965Z,835.00
2018-08-10T04:29:39.736Z,841.00
2018-08-10T04:30:39.509Z,840.00
2018-08-10T04:31:40.276Z,840.00
2018-08-10T04:32:41.076Z,840.00
2018-08-10T04:33:41.847Z,846.00
2018-08-10T04:34:42.620Z,842.00
2018-08-10T04:35:43.392Z,841.00
2018-08-10T04:36:44.165Z,838.00
2018-08-10T04:37:44.965Z,836.00
2018-08-10T04:38:45.737Z,844.00
2018-08-10T04:39:46.524Z,842.00
2018-08-10T04:40:46.304Z,842.00
2018-08-10T04:41:48.070Z,844.00
2018-08-10T04:42:48.870Z,841.00
2018-08-10T04:43:49.644Z,841.00
2018-08-10T04:44:50.417Z,838.00
2018-08-10T04:45:51.191Z,835.00
2018-08-10T04:46:51.969Z,837.00
2018-08-10T04:47:52.770Z,838.00
2018-08-10T04:48:53.542Z,838.00
2018-08-10T04:49:54.318Z,837.00
2018-08-10T04:50:55.088Z,840.00
2018-08-10T04:51:55.864Z,840.00
2018-08-10T04:52:56.669Z,840.00
2018-08-10T04:53:57.443Z,842.00
2018-08-10T04:54:58.247Z,840.00
2018-08-10T04:55:58.995Z,842.00
2018-08-10T04:56:59.774Z,840.00
2018-08-10T04:58:00.574Z,838.00
2018-08-10T04:59:01.347Z,840.00
2018-08-10T05:00:02.126Z,836.00
2018-08-10T05:01:02.903Z,837.00
2018-08-10T05:02:03.670Z,835.00
2018-08-10T05:03:04.470Z,835.00
2018-08-10T05:04:05.243Z,838.00
2018-08-10T05:05:06.019Z,837.00
2018-08-10T05:06:06.798Z,834.00
2018-08-10T05:07:07.569Z,836.00
2018-08-10T05:08:08.368Z,837.00
2018-08-10T05:09:09.148Z,834.00
2018-08-10T05:10:09.923Z,833.00
2018-08-10T05:11:10.698Z,835.00
2018-08-10T05:12:11.472Z,831.00
2018-08-10T05:13:12.269Z,832.00
2018-08-10T05:14:13.044Z,831.00
2018-08-10T05:15:13.823Z,829.00
2018-08-10T05:16:14.643Z,831.00
2018-08-10T05:17:14.367Z,826.00
2018-08-10T05:18:16.168Z,825.00
2018-08-10T05:19:16.945Z,824.00
2018-08-10T05:20:17.715Z,820.00
2018-08-10T05:21:18.488Z,819.00
2018-08-10T05:22:19.277Z,819.00
2018-08-10T05:23:20.075Z,816.00
2018-08-10T05:24:20.852Z,813.00
2018-08-10T05:25:21.624Z,809.00
2018-08-10T05:26:22.397Z,808.00
2018-08-10T05:27:23.176Z,810.00
2018-08-10T05:28:23.967Z,806.00
2018-08-10T05:29:24.739Z,806.00
2018-08-10T05:30:25.512Z,802.00
2018-08-10T05:31:26.285Z,805.00
2018-08-10T05:32:27.060Z,801.00
2018-08-10T05:33:27.866Z,802.00
2018-08-10T05:34:28.641Z,801.00
2018-08-10T05:35:29.414Z,797.00
2018-08-10T05:36:30.183Z,797.00
2018-08-10T05:37:30.953Z,796.00
2018-08-10T05:38:31.760Z,798.00
2018-08-10T05:39:31.531Z,799.00
2018-08-10T05:40:33.308Z,794.00
2018-08-10T05:41:34.078Z,794.00
2018-08-10T05:42:34.852Z,790.00
2018-08-10T05:43:35.647Z,786.00
2018-08-10T05:44:36.421Z,787.00
2018-08-10T05:45:37.193Z,787.00
2018-08-10T05:46:37.965Z,786.00
2018-08-10T05:47:38.736Z,790.00
2018-08-10T05:48:39.540Z,796.00
2018-08-10T05:49:40.307Z,792.00
2018-08-10T05:50:41.095Z,785.00
2018-08-10T05:51:41.860Z,792.00
2018-08-10T05:52:42.721Z,794.00
2018-08-10T05:53:42.447Z,787.00
2018-08-10T05:54:44.213Z,786.00
2018-08-10T05:55:44.985Z,783.00
2018-08-10T05:56:45.760Z,786.00
2018-08-10T05:57:46.533Z,799.00
2018-08-10T05:58:47.336Z,799.00
2018-08-10T05:59:48.103Z,801.00
2018-08-10T06:00:49.027Z,796.00
2018-08-10T06:01:48.654Z,794.00
2018-08-10T06:02:50.431Z,790.00
2018-08-10T06:03:51.331Z,793.00
2018-08-10T06:04:50.998Z,795.00
2018-08-10T06:05:52.769Z,796.00
2018-08-10T06:06:53.540Z,798.00
2018-08-10T06:07:54.316Z,800.00
2018-08-10T06:08:55.108Z,795.00
2018-08-10T06:09:55.883Z,800.00
2018-08-10T06:10:56.656Z,795.00
2018-08-10T06:11:57.428Z,792.00
2018-08-10T06:12:58.201Z,804.00
2018-08-10T06:13:59.001Z,796.00
2018-08-10T06:14:59.775Z,798.00
2018-08-10T06:16:00.548Z,794.00
2018-08-10T06:17:01.331Z,794.00
2018-08-10T06:18:02.479Z,793.00
2018-08-10T06:26:41.403Z,802.00
2018-08-10T06:27:43.238Z,799.00
2018-08-10T06:28:42.948Z,792.00
2018-08-10T06:29:44.744Z,792.00
2018-08-10T06:30:46.515Z,794.00
2018-08-10T06:31:46.289Z,794.00
2018-08-10T06:32:47.059Z,792.00
2018-08-10T06:33:47.855Z,789.00
2018-08-10T06:34:47.627Z,790.00
2018-08-10T06:35:49.407Z,787.00
2018-08-10T06:36:50.172Z,783.00
2018-08-10T06:37:50.952Z,780.00
2018-08-10T06:38:51.722Z,777.00
2018-08-10T06:39:52.533Z,777.00
2018-08-10T06:40:52.292Z,781.00
2018-08-10T06:41:54.065Z,787.00
2018-08-10T06:42:54.847Z,785.00
2018-08-10T06:43:55.621Z,787.00
2018-08-10T06:44:56.601Z,785.00
2018-08-10T06:45:56.195Z,790.00
2018-08-10T06:46:57.967Z,786.00
2018-08-10T06:47:58.737Z,796.00
2018-08-10T06:48:59.518Z,786.00
2018-08-10T06:50:00.308Z,792.00
2018-08-10T06:51:01.209Z,794.00
2018-08-10T06:52:00.850Z,795.00
2018-08-10T06:53:02.632Z,797.00
2018-08-10T06:54:03.399Z,800.00
2018-08-10T06:55:04.197Z,793.00
2018-08-10T06:56:05.042Z,793.00
2018-08-10T06:57:04.771Z,787.00
2018-08-10T06:58:05.523Z,788.00
2018-08-10T06:59:07.298Z,783.00
2018-08-10T07:00:08.094Z,782.00
2018-08-10T07:01:08.992Z,778.00
2018-08-10T07:02:08.653Z,776.00
2018-08-10T07:03:10.425Z,783.00
2018-08-10T07:04:11.200Z,784.00
2018-08-10T07:05:12.003Z,784.00
2018-08-10T07:06:12.773Z,782.00
2018-08-10T07:07:13.544Z,794.00
2018-08-10T07:08:14.323Z,785.00
2018-08-10T07:09:15.089Z,785.00
2018-08-10T07:10:15.887Z,784.00
2018-08-10T07:11:16.659Z,793.00
2018-08-10T07:12:17.432Z,790.00
2018-08-10T07:13:18.317Z,790.00
2018-08-10T07:14:17.979Z,795.00
2018-08-10T07:15:19.775Z,792.00
2018-08-10T07:16:20.551Z,793.00
2018-08-10T07:17:21.325Z,793.00
2018-08-10T07:18:22.102Z,793.00
2018-08-10T07:19:22.876Z,788.00
2018-08-10T07:20:23.682Z,787.00
2018-08-10T07:21:24.449Z,784.00
2018-08-10T07:22:25.229Z,783.00
2018-08-10T07:23:25.999Z,792.00
2018-08-10T07:24:26.773Z,787.00
2018-08-10T07:25:27.568Z,787.00
2018-08-10T07:26:28.343Z,786.00
2018-08-10T07:27:29.110Z,782.00
2018-08-10T07:28:29.883Z,787.00
2018-08-10T07:29:30.655Z,787.00
2018-08-10T07:30:31.462Z,787.00
2018-08-10T07:31:32.229Z,787.00
2018-08-10T07:32:33.013Z,793.00
2018-08-10T07:33:33.782Z,792.00
2018-08-10T07:34:34.555Z,786.00
2018-08-10T07:35:35.350Z,785.00
2018-08-10T07:36:36.127Z,782.00
2018-08-10T07:37:36.894Z,784.00
2018-08-10T07:38:37.741Z,783.00
2018-08-10T07:39:37.445Z,787.00
2018-08-10T07:40:39.237Z,787.00
2018-08-10T07:41:40.021Z,785.00
2018-08-10T07:42:40.788Z,786.00
2018-08-10T07:43:41.569Z,795.00
2018-08-10T07:44:42.334Z,785.00
2018-08-10T07:45:43.131Z,785.00
2018-08-10T07:46:43.906Z,781.00
2018-08-10T07:47:44.677Z,789.00
2018-08-10T07:48:45.451Z,789.00
2018-08-10T07:49:46.224Z,792.00
2018-08-10T07:50:47.029Z,788.00
2018-08-10T07:51:47.802Z,793.00
2018-08-10T07:52:48.579Z,793.00
2018-08-10T07:53:49.372Z,802.00
2018-08-10T07:54:50.124Z,795.00
2018-08-10T07:55:50.937Z,796.00
2018-08-10T07:56:51.701Z,797.00
2018-08-10T07:57:52.479Z,795.00
2018-08-10T07:58:53.256Z,795.00
2018-08-10T07:59:54.027Z,795.00
2018-08-10T08:00:54.826Z,795.00
2018-08-10T08:01:55.597Z,796.00
2018-08-10T08:02:56.369Z,795.00
2018-08-10T08:03:57.144Z,798.00
2018-08-10T08:04:57.915Z,802.00
2018-08-10T08:05:58.713Z,799.00
2018-08-10T08:06:59.516Z,794.00
2018-08-10T08:07:59.285Z,797.00
2018-08-10T08:09:01.032Z,801.00
2018-08-10T08:10:01.805Z,804.00
2018-08-10T08:11:02.603Z,799.00
2018-08-10T08:12:03.378Z,807.00
2018-08-10T08:13:04.156Z,798.00
2018-08-10T08:14:04.924Z,799.00
2018-08-10T08:15:05.702Z,798.00
2018-08-10T08:16:06.507Z,805.00
2018-08-10T08:17:07.272Z,797.00
2018-08-10T08:18:08.254Z,797.00
2018-08-10T08:19:08.031Z,795.00
2018-08-10T08:20:08.717Z,795.00
2018-08-10T08:21:10.516Z,795.00
2018-08-10T08:22:11.285Z,798.00
2018-08-10T08:23:12.055Z,798.00
2018-08-10T08:24:12.833Z,798.00
2018-08-10T08:25:16.697Z,798.00
2018-08-10T08:32:05.079Z,813.00
2018-08-10T08:33:07.848Z,801.00
2018-08-10T08:34:07.619Z,802.00
2018-08-10T08:35:08.509Z,801.00
2018-08-10T08:36:08.163Z,800.00
2018-08-10T08:37:08.959Z,807.00
2018-08-10T08:38:10.990Z,806.00
2018-08-10T08:39:11.671Z,802.00
2018-08-10T08:40:12.443Z,805.00
2018-08-10T08:41:13.214Z,805.00
2018-08-10T08:42:14.011Z,802.00
2018-08-10T08:43:14.785Z,805.00
2018-08-10T08:44:15.557Z,806.00
2018-08-10T08:45:16.412Z,812.00
2018-08-10T08:46:16.427Z,813.00
2018-08-10T08:47:16.894Z,812.00
2018-08-10T08:48:18.755Z,813.00
2018-08-10T08:49:18.453Z,814.00
2018-08-10T08:50:20.225Z,814.00
2018-08-10T08:51:21.998Z,816.00
2018-08-10T08:52:21.797Z,819.00
2018-08-10T08:53:22.565Z,822.00
2018-08-10T08:54:23.344Z,823.00
2018-08-10T08:55:24.114Z,825.00
2018-08-10T08:56:24.885Z,823.00
2018-08-10T08:57:25.679Z,824.00
2018-08-10T08:58:26.458Z,823.00
2018-08-10T08:59:27.226Z,820.00
2018-08-10T09:00:28.259Z,819.00
2018-08-10T09:01:27.948Z,816.00
2018-08-10T09:02:29.745Z,817.00
2018-08-10T09:03:30.519Z,818.00
2018-08-10T09:04:31.287Z,819.00
2018-08-10T09:05:32.063Z,818.00
2018-08-10T09:06:32.834Z,817.00
2018-08-10T09:07:33.640Z,817.00
2018-08-10T09:08:33.411Z,817.00
2018-08-10T09:09:35.186Z,816.00
2018-08-10T09:10:35.958Z,825.00
2018-08-10T09:11:36.730Z,812.00
2018-08-10T09:12:37.525Z,809.00
2018-08-10T09:13:38.305Z,813.00
2018-08-10T09:14:39.070Z,812.00
2018-08-10T09:15:39.865Z,814.00
2018-08-10T09:16:40.613Z,812.00
2018-08-10T09:17:41.561Z,814.00
2018-08-10T09:18:41.284Z,819.00
2018-08-10T09:19:41.985Z,816.00
2018-08-10T09:20:43.757Z,817.00
2018-08-10T09:21:44.531Z,813.00
2018-08-10T09:22:45.336Z,814.00
2018-08-10T09:23:46.110Z,817.00
2018-08-10T09:24:46.888Z,814.00
2018-08-10T09:25:47.660Z,813.00
2018-08-10T09:26:48.437Z,812.00
2018-08-10T09:27:49.234Z,812.00
2018-08-10T09:28:50.013Z,814.00
2018-08-10T09:29:50.788Z,812.00
2018-08-10T09:30:51.558Z,813.00
2018-08-10T09:31:52.333Z,811.00
2018-08-10T09:32:53.139Z,818.00
2018-08-10T09:33:53.910Z,814.00
2018-08-10T09:34:54.689Z,813.00
2018-08-10T09:35:55.462Z,816.00
2018-08-10T09:36:56.234Z,812.00
2018-08-10T09:37:57.036Z,814.00
2018-08-10T09:38:57.812Z,819.00
2018-08-10T09:39:58.584Z,813.00
2018-08-10T09:40:59.358Z,817.00
2018-08-10T09:42:00.154Z,813.00
2018-08-10T09:43:00.939Z,814.00
2018-08-10T09:44:01.711Z,826.00
2018-08-10T09:45:02.484Z,813.00
2018-08-10T09:46:03.274Z,817.00
2018-08-10T09:47:04.042Z,816.00
2018-08-10T09:48:04.838Z,817.00
2018-08-10T09:49:05.620Z,826.00
2018-08-10T09:50:06.382Z,812.00
2018-08-10T09:51:07.161Z,821.00
2018-08-10T09:52:07.939Z,818.00
2018-08-10T09:53:08.996Z,819.00
2018-08-10T09:54:08.692Z,829.00
2018-08-10T09:55:10.467Z,814.00
2018-08-10T09:56:11.251Z,816.00
2018-08-10T09:57:12.017Z,814.00
2018-08-10T09:58:12.814Z,814.00
2018-08-10T09:59:13.592Z,825.00
2018-08-10T10:00:14.366Z,814.00
2018-08-10T10:01:15.142Z,816.00
2018-08-10T10:02:15.913Z,813.00
2018-08-10T10:03:16.734Z,813.00
2018-08-10T10:04:17.502Z,813.00
2018-08-10T10:05:18.288Z,812.00
2018-08-10T10:06:19.051Z,810.00
2018-08-10T10:07:19.823Z,809.00
2018-08-10T10:08:20.624Z,806.00
2018-08-10T10:09:21.393Z,808.00
2018-08-10T10:10:22.166Z,810.00
2018-08-10T10:11:22.942Z,809.00
2018-08-10T10:12:23.716Z,808.00
2018-08-10T10:13:24.549Z,808.00
2018-08-10T10:14:25.320Z,821.00
2018-08-10T10:15:26.094Z,807.00
2018-08-10T10:16:26.865Z,812.00
2018-08-10T10:17:27.665Z,810.00
2018-08-10T10:18:27.444Z,810.00
2018-08-10T10:19:29.223Z,813.00
2018-08-10T10:20:29.990Z,812.00
2018-08-10T10:21:29.767Z,811.00
2018-08-10T10:22:31.539Z,823.00
2018-08-10T10:23:32.344Z,812.00
2018-08-10T10:24:33.117Z,811.00
2018-08-10T10:25:33.891Z,810.00
2018-08-10T10:26:34.669Z,821.00
2018-08-10T10:27:35.439Z,808.00
2018-08-10T10:28:36.242Z,810.00
2018-08-10T10:29:37.116Z,809.00
2018-08-10T10:30:38.313Z,821.00
2018-08-10T10:31:38.495Z,808.00
2018-08-10T10:32:38.709Z,810.00
2018-08-10T10:33:41.362Z,808.00
2018-08-10T10:42:15.510Z,820.00
2018-08-10T10:43:16.282Z,807.00
2018-08-10T10:44:17.057Z,807.00
2018-08-10T10:45:16.853Z,806.00
2018-08-10T10:46:18.627Z,807.00
2018-08-10T10:47:19.419Z,806.00
2018-08-10T10:48:19.172Z,806.00
2018-08-10T10:49:20.943Z,807.00
2018-08-10T10:50:21.742Z,806.00
2018-08-10T10:51:22.512Z,808.00
2018-08-10T10:52:23.286Z,811.00
2018-08-10T10:53:24.054Z,811.00
2018-08-10T10:54:24.828Z,813.00
2018-08-10T10:55:25.683Z,813.00
2018-08-10T10:56:25.413Z,816.00
2018-08-10T10:57:26.180Z,814.00
2018-08-10T10:58:27.952Z,813.00
2018-08-10T10:59:28.727Z,809.00
2018-08-10T11:00:29.524Z,810.00
2018-08-10T11:01:30.304Z,810.00
2018-08-10T11:02:31.082Z,813.00
2018-08-10T11:03:31.851Z,818.00
2018-08-10T11:04:31.625Z,817.00
2018-08-10T11:05:33.431Z,818.00
2018-08-10T11:06:34.208Z,821.00
2018-08-10T11:07:34.978Z,816.00
2018-08-10T11:08:35.749Z,819.00
2018-08-10T11:09:36.528Z,822.00
2018-08-10T11:10:37.331Z,820.00
2018-08-10T11:11:38.099Z,821.00
2018-08-10T11:12:38.879Z,819.00
2018-08-10T11:13:39.650Z,816.00
2018-08-10T11:14:40.433Z,816.00
2018-08-10T11:15:41.233Z,816.00
2018-08-10T11:16:42.007Z,816.00
2018-08-10T11:17:42.777Z,814.00
2018-08-10T11:18:43.547Z,813.00
2018-08-10T11:19:44.321Z,812.00
2018-08-10T11:20:45.120Z,824.00
2018-08-10T11:21:45.892Z,813.00
2018-08-10T11:22:46.670Z,812.00
2018-08-10T11:23:47.447Z,810.00
2018-08-10T11:24:48.224Z,816.00
2018-08-10T11:25:49.187Z,829.00
2018-08-10T11:26:48.792Z,821.00
2018-08-10T11:27:50.568Z,821.00
2018-08-10T11:28:51.338Z,820.00
2018-08-10T11:29:52.117Z,820.00
2018-08-10T11:30:52.916Z,831.00
2018-08-10T11:31:53.745Z,817.00
2018-08-10T11:32:54.461Z,814.00
2018-08-10T11:33:55.238Z,813.00
2018-08-10T11:34:56.010Z,813.00
2018-08-10T11:35:57.805Z,825.00
2018-08-10T11:36:57.578Z,813.00
2018-08-10T11:37:58.350Z,813.00
2018-08-10T11:38:59.127Z,814.00
2018-08-10T11:39:59.901Z,812.00
2018-08-10T11:41:00.702Z,824.00
2018-08-10T11:42:00.479Z,811.00
2018-08-10T11:43:02.250Z,810.00
2018-08-10T11:44:03.024Z,812.00
2018-08-10T11:45:03.882Z,814.00
2018-08-10T11:46:03.604Z,826.00
2018-08-10T11:47:05.376Z,813.00
2018-08-10T11:48:06.155Z,811.00
2018-08-10T11:49:06.925Z,810.00
2018-08-10T11:50:07.740Z,811.00
2018-08-10T11:51:07.504Z,823.00
2018-08-10T11:52:09.278Z,810.00
2018-08-10T11:53:10.050Z,809.00
2018-08-10T11:54:10.827Z,811.00
2018-08-10T11:55:11.609Z,813.00
2018-08-10T11:56:12.404Z,823.00
2018-08-10T11:57:13.217Z,812.00
2018-08-10T11:58:13.956Z,808.00
2018-08-10T11:59:14.735Z,809.00
2018-08-10T12:00:15.505Z,807.00
2018-08-10T12:01:16.309Z,821.00
2018-08-10T12:02:17.089Z,804.00
2018-08-10T12:03:17.858Z,807.00
2018-08-10T12:04:18.628Z,804.00
2018-08-10T12:05:19.411Z,808.00
2018-08-10T12:06:20.343Z,821.00
2018-08-10T12:07:19.982Z,809.00
2018-08-10T12:08:21.759Z,810.00
2018-08-10T12:09:22.532Z,810.00
2018-08-10T12:10:23.309Z,807.00
2018-08-10T12:11:24.147Z,820.00
2018-08-10T12:12:23.932Z,807.00
2018-08-10T12:13:24.656Z,805.00
2018-08-10T12:14:26.428Z,805.00
2018-08-10T12:15:27.202Z,802.00
2018-08-10T12:16:28.006Z,807.00
2018-08-10T12:17:28.783Z,807.00
2018-08-10T12:18:29.573Z,824.00
2018-08-10T12:19:30.333Z,812.00
2018-08-10T12:20:31.110Z,809.00
2018-08-10T12:21:31.906Z,809.00
2018-08-10T12:22:31.681Z,804.00
2018-08-10T12:23:33.457Z,820.00
2018-08-10T12:24:34.260Z,804.00
2018-08-10T12:25:35.003Z,805.00
2018-08-10T12:26:35.807Z,800.00
2018-08-10T12:27:36.579Z,807.00
2018-08-10T12:28:37.355Z,809.00
2018-08-10T12:29:38.129Z,808.00
2018-08-10T12:30:38.909Z,807.00
2018-08-10T12:31:39.707Z,810.00
2018-08-10T12:32:40.478Z,810.00
2018-08-10T12:33:41.255Z,812.00
2018-08-10T12:34:42.024Z,808.00
2018-08-10T12:35:42.798Z,809.00
2018-08-10T12:36:43.597Z,812.00
2018-08-10T12:37:44.374Z,812.00
2018-08-10T12:38:44.168Z,821.00
2018-08-10T12:39:44.950Z,812.00
2018-08-10T12:40:46.717Z,813.00
2018-08-10T12:41:47.529Z,813.00
2018-08-10T12:42:50.061Z,809.00
2018-08-10T12:49:38.132Z,823.00
2018-08-10T12:50:38.950Z,811.00
2018-08-10T12:51:38.675Z,809.00
2018-08-10T12:52:40.470Z,823.00
2018-08-10T12:53:41.241Z,812.00
2018-08-10T12:54:42.020Z,809.00
2018-08-10T12:55:42.788Z,807.00
2018-08-10T12:56:43.563Z,805.00
2018-08-10T12:57:44.364Z,805.00
2018-08-10T12:58:45.155Z,805.00
2018-08-10T12:59:45.914Z,806.00
2018-08-10T13:00:46.696Z,806.00
2018-08-10T13:01:47.463Z,808.00
2018-08-10T13:02:48.288Z,812.00
2018-08-10T13:03:49.042Z,808.00
2018-08-10T13:04:49.815Z,807.00
2018-08-10T13:05:50.590Z,807.00